PWSweather.com
Personal Weather Stations
Station Observations
KCOGRAND2
Redlands, Southcamp Road & Dakota Circle, Grand Junction, CO 81507

Redlands, Southcamp Road & Dakota CircleGrand Junction, CO 81507

Lat: 39.055, Lon: -108.637

Elevation: 4870

Station Type: RadioShack WX200

High Low Average
Temperature 37.8°F3.2°F 31.3°F-0.4°F 34.4°F1.3°F
Dew Point 34.9°F1.6°F 14.0°F-10.0°F 27.8°F-2.3°F
Winds 16.0 mph NNE25.7 mph NNE Calm Calm 5.7 mph 9.2 mph
Wind Gusts 24.4 mph39.3 mph -- 9.5 mph15.3 mph
Humidity 100% 41% 80%
Pressure 24.95 in844.90 in 24.42 in827.00 in -
Precipitation 0.00 in0.00 in - -
Hour Temp Dew Point Humidity Winds Wind Gusts Pressure Precip Precip Rate Daily Precip Total
12:03 AM 36.9°F2.7°C 19.9°F-6.7°C 50% 10.0 mph NNE16.1 kmh NNE 14.3 mph23.0 kmh 24.51 in830.0 mb 0.00 in0.0 mm 0.00 in0.0 mm 0.00 in0.0 mm
12:08 AM 36.7°F2.6°C 19.8°F-6.8°C 50% 10.0 mph NNE16.1 kmh NNE 17.7 mph28.5 kmh 24.51 in830.0 mb 0.00 in0.0 mm 0.00 in0.0 mm 0.00 in0.0 mm
12:13 AM 36.7°F2.6°C 19.4°F-7.0°C 49% 10.0 mph NNE16.1 kmh NNE 20.1 mph32.3 kmh 24.51 in830.0 mb 0.00 in0.0 mm 0.00 in0.0 mm 0.00 in0.0 mm
12:18 AM 36.9°F2.7°C 18.5°F-7.5°C 47% 11.0 mph NNE17.7 kmh NNE 18.1 mph29.1 kmh 24.51 in830.0 mb 0.00 in0.0 mm 0.00 in0.0 mm 0.00 in0.0 mm
12:23 AM 36.3°F2.4°C 19.0°F-7.2°C 49% 12.0 mph N19.3 kmh N 16.8 mph27.0 kmh 24.51 in830.0 mb 0.00 in0.0 mm 0.00 in0.0 mm 0.00 in0.0 mm
12:28 AM 36.7°F2.6°C 18.3°F-7.6°C 47% 11.0 mph N17.7 kmh N 18.6 mph29.9 kmh 24.48 in829.0 mb 0.00 in0.0 mm 0.00 in0.0 mm 0.00 in0.0 mm
12:33 AM 36.7°F2.6°C 18.3°F-7.6°C 47% 12.0 mph NNE19.3 kmh NNE 20.1 mph32.3 kmh 24.48 in829.0 mb 0.00 in0.0 mm 0.00 in0.0 mm 0.00 in0.0 mm
12:38 AM 36.9°F2.7°C 18.5°F-7.5°C 47% 14.0 mph NNE22.5 kmh NNE 23.7 mph38.1 kmh 24.48 in829.0 mb 0.00 in0.0 mm 0.00 in0.0 mm 0.00 in0.0 mm
12:43 AM 37.0°F2.8°C 18.1°F-7.7°C 46% 16.0 mph NNE25.7 kmh NNE 24.4 mph39.3 kmh 24.48 in829.0 mb 0.00 in0.0 mm 0.00 in0.0 mm 0.00 in0.0 mm
12:48 AM 36.9°F2.7°C 18.0°F-7.8°C 46% 14.0 mph NNE22.5 kmh NNE 18.6 mph29.9 kmh 24.48 in829.0 mb 0.00 in0.0 mm 0.00 in0.0 mm 0.00 in0.0 mm
12:53 AM 36.7°F2.6°C 18.3°F-7.6°C 47% 12.0 mph N19.3 kmh N 19.9 mph32.0 kmh 24.48 in829.0 mb 0.00 in0.0 mm 0.00 in0.0 mm 0.00 in0.0 mm
12:58 AM 37.0°F2.8°C 17.8°F-7.9°C 45% 14.0 mph N22.5 kmh N 21.5 mph34.6 kmh 24.48 in829.0 mb 0.00 in0.0 mm 0.00 in0.0 mm 0.00 in0.0 mm
01:03 AM 37.0°F2.8°C 17.8°F-7.9°C 45% 14.0 mph N22.5 kmh N 20.1 mph32.3 kmh 24.48 in829.0 mb 0.00 in0.0 mm 0.00 in0.0 mm 0.00 in0.0 mm
01:08 AM 36.5°F2.5°C 18.1°F-7.7°C 47% 12.0 mph N19.3 kmh N 17.7 mph28.5 kmh 24.48 in829.0 mb 0.00 in0.0 mm 0.00 in0.0 mm 0.00 in0.0 mm
01:13 AM 37.0°F2.8°C 17.8°F-7.9°C 45% 12.0 mph N19.3 kmh N 19.9 mph32.0 kmh 24.48 in829.0 mb 0.00 in0.0 mm 0.00 in0.0 mm 0.00 in0.0 mm
01:18 AM 37.0°F2.8°C 17.8°F-7.9°C 45% 12.0 mph N19.3 kmh N 15.4 mph24.8 kmh 24.48 in829.0 mb 0.00 in0.0 mm 0.00 in0.0 mm 0.00 in0.0 mm
01:23 AM 37.0°F2.8°C 17.2°F-8.2°C 44% 12.0 mph N19.3 kmh N 20.1 mph32.3 kmh 24.48 in829.0 mb 0.00 in0.0 mm 0.00 in0.0 mm 0.00 in0.0 mm
01:28 AM 36.9°F2.7°C 17.1°F-8.3°C 44% 12.0 mph N19.3 kmh N 19.5 mph31.4 kmh 24.48 in829.0 mb 0.00 in0.0 mm 0.00 in0.0 mm 0.00 in0.0 mm
01:33 AM 36.9°F2.7°C 17.6°F-8.0°C 45% 12.0 mph NNE19.3 kmh NNE 18.6 mph29.9 kmh 24.48 in829.0 mb 0.00 in0.0 mm 0.00 in0.0 mm 0.00 in0.0 mm
01:38 AM 36.9°F2.7°C 17.6°F-8.0°C 45% 12.0 mph NNE19.3 kmh NNE 21.0 mph33.8 kmh 24.48 in829.0 mb 0.00 in0.0 mm 0.00 in0.0 mm 0.00 in0.0 mm
01:43 AM 36.5°F2.5°C 17.8°F-7.9°C 46% 12.0 mph NNE19.3 kmh NNE 18.1 mph29.1 kmh 24.45 in828.0 mb 0.00 in0.0 mm 0.00 in0.0 mm 0.00 in0.0 mm
01:48 AM 36.3°F2.4°C 18.0°F-7.8°C 47% 9.0 mph NNE14.5 kmh NNE 14.3 mph23.0 kmh 24.45 in828.0 mb 0.00 in0.0 mm 0.00 in0.0 mm 0.00 in0.0 mm
01:53 AM 36.5°F2.5°C 17.8°F-7.9°C 46% 8.0 mph NE12.9 kmh NE 11.0 mph17.7 kmh 24.45 in828.0 mb 0.00 in0.0 mm 0.00 in0.0 mm 0.00 in0.0 mm
01:58 AM 36.5°F2.5°C 17.8°F-7.9°C 46% 8.0 mph NE12.9 kmh NE 13.4 mph21.6 kmh 24.45 in828.0 mb 0.00 in0.0 mm 0.00 in0.0 mm 0.00 in0.0 mm
02:03 AM 36.7°F2.6°C 17.4°F-8.1°C 45% 8.0 mph NNE12.9 kmh NNE 14.8 mph23.8 kmh 24.45 in828.0 mb 0.00 in0.0 mm 0.00 in0.0 mm 0.00 in0.0 mm
02:08 AM 36.9°F2.7°C 17.1°F-8.3°C 44% 8.0 mph N12.9 kmh N 16.8 mph27.0 kmh 24.45 in828.0 mb 0.00 in0.0 mm 0.00 in0.0 mm 0.00 in0.0 mm
02:13 AM 36.7°F2.6°C 16.9°F-8.4°C 44% 8.0 mph N12.9 kmh N 11.6 mph18.7 kmh 24.45 in828.0 mb 0.00 in0.0 mm 0.00 in0.0 mm 0.00 in0.0 mm
02:18 AM 35.8°F2.1°C 17.6°F-8.0°C 47% 6.0 mph NNW9.7 kmh NNW 10.1 mph16.3 kmh 24.45 in828.0 mb 0.00 in0.0 mm 0.00 in0.0 mm 0.00 in0.0 mm
02:23 AM 36.1°F2.3°C 19.4°F-7.0°C 50% 5.0 mph N8.0 kmh N 9.6 mph15.4 kmh 24.45 in828.0 mb 0.00 in0.0 mm 0.00 in0.0 mm 0.00 in0.0 mm
02:28 AM 37.2°F2.9°C 17.8°F-7.9°C 45% 7.0 mph N11.3 kmh N 13.9 mph22.4 kmh 24.45 in828.0 mb 0.00 in0.0 mm 0.00 in0.0 mm 0.00 in0.0 mm
02:33 AM 37.4°F3.0°C 17.1°F-8.3°C 43% 9.0 mph N14.5 kmh N 13.4 mph21.6 kmh 24.45 in828.0 mb 0.00 in0.0 mm 0.00 in0.0 mm 0.00 in0.0 mm
02:38 AM 37.2°F2.9°C 16.9°F-8.4°C 43% 9.0 mph NNE14.5 kmh NNE 14.3 mph23.0 kmh 24.45 in828.0 mb 0.00 in0.0 mm 0.00 in0.0 mm 0.00 in0.0 mm
02:43 AM 37.2°F2.9°C 16.9°F-8.4°C 43% 8.0 mph NNE12.9 kmh NNE 11.6 mph18.7 kmh 24.45 in828.0 mb 0.00 in0.0 mm 0.00 in0.0 mm 0.00 in0.0 mm
02:48 AM 36.9°F2.7°C 17.1°F-8.3°C 44% 7.0 mph NNE11.3 kmh NNE 12.5 mph20.1 kmh 24.45 in828.0 mb 0.00 in0.0 mm 0.00 in0.0 mm 0.00 in0.0 mm
02:53 AM 36.9°F2.7°C 17.1°F-8.3°C 44% 7.0 mph NNE11.3 kmh NNE 14.3 mph23.0 kmh 24.45 in828.0 mb 0.00 in0.0 mm 0.00 in0.0 mm 0.00 in0.0 mm
02:58 AM 37.2°F2.9°C 16.9°F-8.4°C 43% 9.0 mph NNE14.5 kmh NNE 17.2 mph27.7 kmh 24.45 in828.0 mb 0.00 in0.0 mm 0.00 in0.0 mm 0.00 in0.0 mm
03:03 AM 37.2°F2.9°C 16.3°F-8.7°C 42% 10.0 mph NNE16.1 kmh NNE 15.9 mph25.6 kmh 24.45 in828.0 mb 0.00 in0.0 mm 0.00 in0.0 mm 0.00 in0.0 mm
03:08 AM 37.6°F3.1°C 16.5°F-8.6°C 42% 11.0 mph NNE17.7 kmh NNE 17.7 mph28.5 kmh 24.45 in828.0 mb 0.00 in0.0 mm 0.00 in0.0 mm 0.00 in0.0 mm
03:13 AM 37.8°F3.2°C 16.2°F-8.8°C 41% 12.0 mph NNE19.3 kmh NNE 20.1 mph32.3 kmh 24.45 in828.0 mb 0.00 in0.0 mm 0.00 in0.0 mm 0.00 in0.0 mm
03:18 AM 37.4°F3.0°C 16.3°F-8.7°C 42% 12.0 mph NNE19.3 kmh NNE 20.1 mph32.3 kmh 24.45 in828.0 mb 0.00 in0.0 mm 0.00 in0.0 mm 0.00 in0.0 mm
03:23 AM 37.4°F3.0°C 17.1°F-8.3°C 43% 11.0 mph NNE17.7 kmh NNE 21.5 mph34.6 kmh 24.45 in828.0 mb 0.00 in0.0 mm 0.00 in0.0 mm 0.00 in0.0 mm
03:28 AM 37.0°F2.8°C 17.2°F-8.2°C 44% 11.0 mph NNE17.7 kmh NNE 19.0 mph30.6 kmh 24.45 in828.0 mb 0.00 in0.0 mm 0.00 in0.0 mm 0.00 in0.0 mm
03:33 AM 36.9°F2.7°C 17.6°F-8.0°C 45% 11.0 mph NNE17.7 kmh NNE 22.4 mph36.0 kmh 24.45 in828.0 mb 0.00 in0.0 mm 0.00 in0.0 mm 0.00 in0.0 mm
03:39 AM 36.9°F2.7°C 18.0°F-7.8°C 46% 11.0 mph NNE17.7 kmh NNE 19.0 mph30.6 kmh 24.45 in828.0 mb 0.00 in0.0 mm 0.00 in0.0 mm 0.00 in0.0 mm
03:44 AM 36.7°F2.6°C 18.3°F-7.6°C 47% 9.0 mph NE14.5 kmh NE 15.9 mph25.6 kmh 24.45 in828.0 mb 0.00 in0.0 mm 0.00 in0.0 mm 0.00 in0.0 mm
03:49 AM 36.5°F2.5°C 19.2°F-7.1°C 49% 8.0 mph NE12.9 kmh NE 16.8 mph27.0 kmh 24.45 in828.0 mb 0.00 in0.0 mm 0.00 in0.0 mm 0.00 in0.0 mm
03:54 AM 36.3°F2.4°C 19.4°F-7.0°C 50% 8.0 mph NE12.9 kmh NE 13.9 mph22.4 kmh 24.45 in828.0 mb 0.00 in0.0 mm 0.00 in0.0 mm 0.00 in0.0 mm
03:59 AM 36.1°F2.3°C 19.8°F-6.8°C 51% 9.0 mph NE14.5 kmh NE 15.4 mph24.8 kmh 24.45 in828.0 mb 0.00 in0.0 mm 0.00 in0.0 mm 0.00 in0.0 mm
04:04 AM 36.0°F2.2°C 20.1°F-6.6°C 52% 10.0 mph NE16.1 kmh NE 17.7 mph28.5 kmh 24.45 in828.0 mb 0.00 in0.0 mm 0.00 in0.0 mm 0.00 in0.0 mm
04:09 AM 35.8°F2.1°C 20.3°F-6.5°C 53% 9.0 mph NE14.5 kmh NE 13.9 mph22.4 kmh 24.45 in828.0 mb 0.00 in0.0 mm 0.00 in0.0 mm 0.00 in0.0 mm
04:14 AM 35.6°F2.0°C 20.1°F-6.6°C 53% 8.0 mph NE12.9 kmh NE 15.2 mph24.5 kmh 24.45 in828.0 mb 0.00 in0.0 mm 0.00 in0.0 mm 0.00 in0.0 mm
04:19 AM 35.6°F2.0°C 20.7°F-6.3°C 54% 8.0 mph NE12.9 kmh NE 13.0 mph20.9 kmh 24.45 in828.0 mb 0.00 in0.0 mm 0.00 in0.0 mm 0.00 in0.0 mm
04:24 AM 35.6°F2.0°C 20.1°F-6.6°C 53% 8.0 mph NE12.9 kmh NE 12.5 mph20.1 kmh 24.45 in828.0 mb 0.00 in0.0 mm 0.00 in0.0 mm 0.00 in0.0 mm
04:29 AM 35.4°F1.9°C 20.5°F-6.4°C 54% 7.0 mph NE11.3 kmh NE 12.5 mph20.1 kmh 24.45 in828.0 mb 0.00 in0.0 mm 0.00 in0.0 mm 0.00 in0.0 mm
04:34 AM 35.6°F2.0°C 20.7°F-6.3°C 54% 7.0 mph NNE11.3 kmh NNE 14.8 mph23.8 kmh 24.45 in828.0 mb 0.00 in0.0 mm 0.00 in0.0 mm 0.00 in0.0 mm
04:39 AM 35.6°F2.0°C 20.1°F-6.6°C 53% 6.0 mph NNE9.7 kmh NNE 13.4 mph21.6 kmh 24.45 in828.0 mb 0.00 in0.0 mm 0.00 in0.0 mm 0.00 in0.0 mm
04:44 AM 35.4°F1.9°C 19.9°F-6.7°C 53% 6.0 mph NNE9.7 kmh NNE 13.4 mph21.6 kmh 24.45 in828.0 mb 0.00 in0.0 mm 0.00 in0.0 mm 0.00 in0.0 mm
04:49 AM 35.4°F1.9°C 19.9°F-6.7°C 53% 7.0 mph NNE11.3 kmh NNE 11.2 mph18.0 kmh 24.45 in828.0 mb 0.00 in0.0 mm 0.00 in0.0 mm 0.00 in0.0 mm
04:54 AM 35.6°F2.0°C 20.1°F-6.6°C 53% 7.0 mph NNE11.3 kmh NNE 13.0 mph20.9 kmh 24.45 in828.0 mb 0.00 in0.0 mm 0.00 in0.0 mm 0.00 in0.0 mm
04:59 AM 35.8°F2.1°C 19.4°F-7.0°C 51% 9.0 mph NNE14.5 kmh NNE 17.2 mph27.7 kmh 24.42 in827.0 mb 0.00 in0.0 mm 0.00 in0.0 mm 0.00 in0.0 mm
05:04 AM 35.8°F2.1°C 19.9°F-6.7°C 52% 9.0 mph NNE14.5 kmh NNE 13.9 mph22.4 kmh 24.42 in827.0 mb 0.00 in0.0 mm 0.00 in0.0 mm 0.00 in0.0 mm
05:09 AM 35.6°F2.0°C 19.8°F-6.8°C 52% 9.0 mph N14.5 kmh N 13.4 mph21.6 kmh 24.42 in827.0 mb 0.00 in0.0 mm 0.00 in0.0 mm 0.00 in0.0 mm
05:14 AM 35.4°F1.9°C 19.9°F-6.7°C 53% 8.0 mph N12.9 kmh N 12.5 mph20.1 kmh 24.42 in827.0 mb 0.00 in0.0 mm 0.00 in0.0 mm 0.00 in0.0 mm
05:19 AM 35.4°F1.9°C 19.6°F-6.9°C 52% 9.0 mph N14.5 kmh N 13.4 mph21.6 kmh 24.42 in827.0 mb 0.00 in0.0 mm 0.00 in0.0 mm 0.00 in0.0 mm
05:24 AM 35.2°F1.8°C 19.8°F-6.8°C 53% 9.0 mph N14.5 kmh N 13.0 mph20.9 kmh 24.42 in827.0 mb 0.00 in0.0 mm 0.00 in0.0 mm 0.00 in0.0 mm
05:29 AM 35.1°F1.7°C 19.8°F-6.8°C 53% 9.0 mph N14.5 kmh N 15.2 mph24.5 kmh 24.42 in827.0 mb 0.00 in0.0 mm 0.00 in0.0 mm 0.00 in0.0 mm
05:34 AM 34.2°F1.2°C 20.1°F-6.6°C 56% 8.0 mph NNW12.9 kmh NNW 11.2 mph18.0 kmh 24.42 in827.0 mb 0.00 in0.0 mm 0.00 in0.0 mm 0.00 in0.0 mm
05:39 AM 34.0°F1.1°C 21.2°F-6.0°C 59% 7.0 mph NW11.3 kmh NW 11.0 mph17.7 kmh 24.42 in827.0 mb 0.00 in0.0 mm 0.00 in0.0 mm 0.00 in0.0 mm
05:44 AM 33.8°F1.0°C 21.7°F-5.7°C 61% 7.0 mph NW11.3 kmh NW 9.6 mph15.4 kmh 24.42 in827.0 mb 0.00 in0.0 mm 0.00 in0.0 mm 0.00 in0.0 mm
05:49 AM 33.3°F0.7°C 22.8°F-5.1°C 65% 7.0 mph NW11.3 kmh NW 11.2 mph18.0 kmh 24.42 in827.0 mb 0.00 in0.0 mm 0.00 in0.0 mm 0.00 in0.0 mm
05:54 AM 33.1°F0.6°C 23.7°F-4.6°C 68% 6.0 mph NW9.7 kmh NW 9.2 mph14.8 kmh 24.42 in827.0 mb 0.00 in0.0 mm 0.00 in0.0 mm 0.00 in0.0 mm
05:59 AM 33.1°F0.6°C 24.4°F-4.2°C 70% 6.0 mph NW9.7 kmh NW 10.1 mph16.3 kmh 24.42 in827.0 mb 0.00 in0.0 mm 0.00 in0.0 mm 0.00 in0.0 mm
06:04 AM 32.9°F0.5°C 25.2°F-3.8°C 73% 6.0 mph NW9.7 kmh NW 10.1 mph16.3 kmh 24.42 in827.0 mb 0.00 in0.0 mm 0.00 in0.0 mm 0.00 in0.0 mm
06:09 AM 32.9°F0.5°C 25.5°F-3.6°C 74% 6.0 mph NW9.7 kmh NW 9.6 mph15.4 kmh 24.42 in827.0 mb 0.00 in0.0 mm 0.00 in0.0 mm 0.00 in0.0 mm
06:14 AM 32.7°F0.4°C 25.7°F-3.5°C 75% 6.0 mph NW9.7 kmh NW 10.5 mph16.9 kmh 24.42 in827.0 mb 0.00 in0.0 mm 0.00 in0.0 mm 0.00 in0.0 mm
06:19 AM 32.7°F0.4°C 26.1°F-3.3°C 76% 6.0 mph NW9.7 kmh NW 10.5 mph16.9 kmh 24.42 in827.0 mb 0.00 in0.0 mm 0.00 in0.0 mm 0.00 in0.0 mm
06:24 AM 32.5°F0.3°C 26.1°F-3.3°C 77% 5.0 mph NW8.0 kmh NW 6.7 mph10.8 kmh 24.42 in827.0 mb 0.00 in0.0 mm 0.00 in0.0 mm 0.00 in0.0 mm
06:29 AM 32.5°F0.3°C 26.4°F-3.1°C 78% 5.0 mph NW8.0 kmh NW 8.7 mph14.0 kmh 24.42 in827.0 mb 0.00 in0.0 mm 0.00 in0.0 mm 0.00 in0.0 mm
06:34 AM 32.5°F0.3°C 26.8°F-2.9°C 79% 6.0 mph NW9.7 kmh NW 10.1 mph16.3 kmh 24.42 in827.0 mb 0.00 in0.0 mm 0.00 in0.0 mm 0.00 in0.0 mm
06:39 AM 32.4°F0.2°C 27.1°F-2.7°C 81% 6.0 mph NW9.7 kmh NW 10.5 mph16.9 kmh 24.42 in827.0 mb 0.00 in0.0 mm 0.00 in0.0 mm 0.00 in0.0 mm
06:44 AM 32.2°F0.1°C 27.7°F-2.4°C 83% 6.0 mph NW9.7 kmh NW 9.6 mph15.4 kmh 24.42 in827.0 mb 0.00 in0.0 mm 0.00 in0.0 mm 0.00 in0.0 mm
06:49 AM 32.0°F0.0°C 28.0°F-2.2°C 85% 6.0 mph NW9.7 kmh NW 8.3 mph13.4 kmh 24.42 in827.0 mb 0.00 in0.0 mm 0.00 in0.0 mm 0.00 in0.0 mm
06:54 AM 32.0°F0.0°C 28.2°F-2.1°C 86% 6.0 mph NW9.7 kmh NW 10.5 mph16.9 kmh 24.42 in827.0 mb 0.00 in0.0 mm 0.00 in0.0 mm 0.00 in0.0 mm
06:59 AM 31.8°F-0.1°C 28.8°F-1.8°C 88% 7.0 mph NW11.3 kmh NW 11.0 mph17.7 kmh 24.45 in828.0 mb 0.00 in0.0 mm 0.00 in0.0 mm 0.00 in0.0 mm
07:04 AM 31.6°F-0.2°C 28.8°F-1.8°C 89% 7.0 mph NW11.3 kmh NW 10.1 mph16.3 kmh 24.45 in828.0 mb 0.00 in0.0 mm 0.00 in0.0 mm 0.00 in0.0 mm
07:09 AM 31.8°F-0.1°C 29.3°F-1.5°C 90% 6.0 mph NW9.7 kmh NW 10.5 mph16.9 kmh 24.45 in828.0 mb 0.00 in0.0 mm 0.00 in0.0 mm 0.00 in0.0 mm
07:14 AM 31.6°F-0.2°C 29.3°F-1.5°C 91% 7.0 mph NW11.3 kmh NW 9.6 mph15.4 kmh 24.45 in828.0 mb 0.00 in0.0 mm 0.00 in0.0 mm 0.00 in0.0 mm
07:19 AM 31.6°F-0.2°C 29.7°F-1.3°C 92% 6.0 mph NW9.7 kmh NW 8.7 mph14.0 kmh 24.45 in828.0 mb 0.00 in0.0 mm 0.00 in0.0 mm 0.00 in0.0 mm
07:24 AM 31.5°F-0.3°C 29.5°F-1.4°C 92% 6.0 mph NW9.7 kmh NW 8.3 mph13.4 kmh 24.45 in828.0 mb 0.00 in0.0 mm 0.00 in0.0 mm 0.00 in0.0 mm
07:29 AM 31.5°F-0.3°C 29.7°F-1.3°C 93% 6.0 mph NW9.7 kmh NW 8.3 mph13.4 kmh 24.45 in828.0 mb 0.00 in0.0 mm 0.00 in0.0 mm 0.00 in0.0 mm
07:34 AM 31.5°F-0.3°C 29.7°F-1.3°C 93% 6.0 mph NW9.7 kmh NW 9.6 mph15.4 kmh 24.45 in828.0 mb 0.00 in0.0 mm 0.00 in0.0 mm 0.00 in0.0 mm
07:39 AM 31.5°F-0.3°C 30.0°F-1.1°C 94% 6.0 mph NW9.7 kmh NW 11.0 mph17.7 kmh 24.45 in828.0 mb 0.00 in0.0 mm 0.00 in0.0 mm 0.00 in0.0 mm
07:44 AM 31.5°F-0.3°C 30.0°F-1.1°C 94% 7.0 mph NW11.3 kmh NW 11.2 mph18.0 kmh 24.45 in828.0 mb 0.00 in0.0 mm 0.00 in0.0 mm 0.00 in0.0 mm
07:49 AM 31.5°F-0.3°C 30.0°F-1.1°C 94% 7.0 mph NW11.3 kmh NW 11.6 mph18.7 kmh 24.45 in828.0 mb 0.00 in0.0 mm 0.00 in0.0 mm 0.00 in0.0 mm
07:54 AM 31.5°F-0.3°C 30.2°F-1.0°C 95% 7.0 mph NW11.3 kmh NW 11.6 mph18.7 kmh 24.45 in828.0 mb 0.00 in0.0 mm 0.00 in0.0 mm 0.00 in0.0 mm
07:59 AM 31.5°F-0.3°C 30.2°F-1.0°C 95% 6.0 mph NW9.7 kmh NW 11.6 mph18.7 kmh 24.45 in828.0 mb 0.00 in0.0 mm 0.00 in0.0 mm 0.00 in0.0 mm
08:04 AM 31.5°F-0.3°C 30.2°F-1.0°C 95% 6.0 mph NW9.7 kmh NW 8.7 mph14.0 kmh 24.45 in828.0 mb 0.00 in0.0 mm 0.00 in0.0 mm 0.00 in0.0 mm
08:09 AM 31.5°F-0.3°C 30.2°F-1.0°C 95% 6.0 mph NW9.7 kmh NW 9.2 mph14.8 kmh 24.45 in828.0 mb 0.00 in0.0 mm 0.00 in0.0 mm 0.00 in0.0 mm
08:14 AM 31.5°F-0.3°C 30.2°F-1.0°C 95% 6.0 mph NNW9.7 kmh NNW 11.2 mph18.0 kmh 24.45 in828.0 mb 0.00 in0.0 mm 0.00 in0.0 mm 0.00 in0.0 mm
08:19 AM 31.3°F-0.4°C 30.2°F-1.0°C 96% 5.0 mph NNW8.0 kmh NNW 7.4 mph11.9 kmh 24.45 in828.0 mb 0.00 in0.0 mm 0.00 in0.0 mm 0.00 in0.0 mm
08:24 AM 31.3°F-0.4°C 30.2°F-1.0°C 96% 5.0 mph N8.0 kmh N 11.6 mph18.7 kmh 24.45 in828.0 mb 0.00 in0.0 mm 0.00 in0.0 mm 0.00 in0.0 mm
08:29 AM 31.3°F-0.4°C 30.2°F-1.0°C 96% 6.0 mph N9.7 kmh N 8.3 mph13.4 kmh 24.45 in828.0 mb 0.00 in0.0 mm 0.00 in0.0 mm 0.00 in0.0 mm
08:34 AM 31.3°F-0.4°C 30.2°F-1.0°C 96% 6.0 mph N9.7 kmh N 8.3 mph13.4 kmh 24.45 in828.0 mb 0.00 in0.0 mm 0.00 in0.0 mm 0.00 in0.0 mm
08:39 AM 31.3°F-0.4°C 30.2°F-1.0°C 96% 5.0 mph 8.0 kmh 8.7 mph14.0 kmh 24.45 in828.0 mb 0.00 in0.0 mm 0.00 in0.0 mm 0.00 in0.0 mm
08:44 AM 31.3°F-0.4°C 30.2°F-1.0°C 96% 5.0 mph N8.0 kmh N 10.1 mph16.3 kmh 24.45 in828.0 mb 0.00 in0.0 mm 0.00 in0.0 mm 0.00 in0.0 mm
08:49 AM 31.3°F-0.4°C 30.2°F-1.0°C 96% 4.0 mph N6.4 kmh N 6.3 mph10.1 kmh 24.45 in828.0 mb 0.00 in0.0 mm 0.00 in0.0 mm 0.00 in0.0 mm
08:54 AM 31.3°F-0.4°C 30.2°F-1.0°C 96% 4.0 mph N6.4 kmh N 7.4 mph11.9 kmh 24.45 in828.0 mb 0.00 in0.0 mm 0.00 in0.0 mm 0.00 in0.0 mm
08:59 AM 31.3°F-0.4°C 30.2°F-1.0°C 96% 4.0 mph N6.4 kmh N 7.4 mph11.9 kmh 24.48 in829.0 mb 0.00 in0.0 mm 0.00 in0.0 mm 0.00 in0.0 mm
09:04 AM 31.3°F-0.4°C 30.2°F-1.0°C 96% 4.0 mph N6.4 kmh N 6.9 mph11.1 kmh 24.48 in829.0 mb 0.00 in0.0 mm 0.00 in0.0 mm 0.00 in0.0 mm
09:09 AM 31.3°F-0.4°C 30.2°F-1.0°C 96% 4.0 mph N6.4 kmh N 6.3 mph10.1 kmh 24.48 in829.0 mb 0.00 in0.0 mm 0.00 in0.0 mm 0.00 in0.0 mm
09:14 AM 31.3°F-0.4°C 30.2°F-1.0°C 96% 4.0 mph NNE6.4 kmh NNE 5.4 mph8.7 kmh 24.48 in829.0 mb 0.00 in0.0 mm 0.00 in0.0 mm 0.00 in0.0 mm
09:19 AM 31.3°F-0.4°C 30.2°F-1.0°C 96% 2.0 mph NE3.2 kmh NE 4.9 mph7.9 kmh 24.48 in829.0 mb 0.00 in0.0 mm 0.00 in0.0 mm 0.00 in0.0 mm
09:24 AM 31.3°F-0.4°C 30.2°F-1.0°C 96% 2.0 mph NE3.2 kmh NE 4.5 mph7.2 kmh 24.48 in829.0 mb 0.00 in0.0 mm 0.00 in0.0 mm 0.00 in0.0 mm
09:29 AM 31.5°F-0.3°C 30.4°F-0.9°C 96% 2.0 mph NE3.2 kmh NE 4.5 mph7.2 kmh 24.48 in829.0 mb 0.00 in0.0 mm 0.00 in0.0 mm 0.00 in0.0 mm
09:34 AM 31.3°F-0.4°C 30.2°F-1.0°C 96% 3.0 mph NNE4.8 kmh NNE 5.8 mph9.3 kmh 24.48 in829.0 mb 0.00 in0.0 mm 0.00 in0.0 mm 0.00 in0.0 mm
09:39 AM 31.5°F-0.3°C 30.4°F-0.9°C 96% 4.0 mph NNW6.4 kmh NNW 4.9 mph7.9 kmh 24.48 in829.0 mb 0.00 in0.0 mm 0.00 in0.0 mm 0.00 in0.0 mm
09:44 AM 31.5°F-0.3°C 30.4°F-0.9°C 96% 4.0 mph NNW6.4 kmh NNW 6.3 mph10.1 kmh 24.48 in829.0 mb 0.00 in0.0 mm 0.00 in0.0 mm 0.00 in0.0 mm
09:49 AM 31.5°F-0.3°C 30.4°F-0.9°C 96% 4.0 mph NNW6.4 kmh NNW 5.4 mph8.7 kmh 24.48 in829.0 mb 0.00 in0.0 mm 0.00 in0.0 mm 0.00 in0.0 mm
09:54 AM 31.6°F-0.2°C 30.9°F-0.6°C 97% 3.0 mph NW4.8 kmh NW 5.4 mph8.7 kmh 24.48 in829.0 mb 0.00 in0.0 mm 0.00 in0.0 mm 0.00 in0.0 mm
09:59 AM 31.6°F-0.2°C 30.9°F-0.6°C 97% 3.0 mph NNW4.8 kmh NNW 5.4 mph8.7 kmh 24.48 in829.0 mb 0.00 in0.0 mm 0.00 in0.0 mm 0.00 in0.0 mm
10:04 AM 31.8°F-0.1°C 31.1°F-0.5°C 97% 4.0 mph NNW6.4 kmh NNW 5.8 mph9.3 kmh 24.48 in829.0 mb 0.00 in0.0 mm 0.00 in0.0 mm 0.00 in0.0 mm
10:09 AM 31.6°F-0.2°C 30.9°F-0.6°C 97% 4.0 mph NW6.4 kmh NW 8.3 mph13.4 kmh 24.48 in829.0 mb 0.00 in0.0 mm 0.00 in0.0 mm 0.00 in0.0 mm
10:14 AM 31.8°F-0.1°C 31.1°F-0.5°C 97% 4.0 mph NW6.4 kmh NW 6.7 mph10.8 kmh 24.51 in830.0 mb 0.00 in0.0 mm 0.00 in0.0 mm 0.00 in0.0 mm
10:19 AM 31.8°F-0.1°C 31.1°F-0.5°C 97% 4.0 mph NW6.4 kmh NW 7.4 mph11.9 kmh 24.51 in830.0 mb 0.00 in0.0 mm 0.00 in0.0 mm 0.00 in0.0 mm
10:24 AM 31.8°F-0.1°C 31.1°F-0.5°C 97% 5.0 mph NW8.0 kmh NW 7.8 mph12.6 kmh 24.51 in830.0 mb 0.00 in0.0 mm 0.00 in0.0 mm 0.00 in0.0 mm
10:29 AM 32.2°F0.1°C 31.5°F-0.3°C 97% 5.0 mph NNW8.0 kmh NNW 6.9 mph11.1 kmh 24.51 in830.0 mb 0.00 in0.0 mm 0.00 in0.0 mm 0.00 in0.0 mm
10:34 AM 32.2°F0.1°C 31.5°F-0.3°C 97% 4.0 mph N6.4 kmh N 7.4 mph11.9 kmh 24.51 in830.0 mb 0.00 in0.0 mm 0.00 in0.0 mm 0.00 in0.0 mm
10:39 AM 32.5°F0.3°C 31.8°F-0.1°C 97% 4.0 mph N6.4 kmh N 5.8 mph9.3 kmh 24.51 in830.0 mb 0.00 in0.0 mm 0.00 in0.0 mm 0.00 in0.0 mm
10:44 AM 32.5°F0.3°C 31.8°F-0.1°C 97% 4.0 mph NNW6.4 kmh NNW 6.3 mph10.1 kmh 24.51 in830.0 mb 0.00 in0.0 mm 0.00 in0.0 mm 0.00 in0.0 mm
10:49 AM 32.4°F0.2°C 31.6°F-0.2°C 97% 5.0 mph NW8.0 kmh NW 6.9 mph11.1 kmh 24.51 in830.0 mb 0.00 in0.0 mm 0.00 in0.0 mm 0.00 in0.0 mm
10:54 AM 32.5°F0.3°C 31.8°F-0.1°C 97% 5.0 mph NW8.0 kmh NW 8.3 mph13.4 kmh 24.51 in830.0 mb 0.00 in0.0 mm 0.00 in0.0 mm 0.00 in0.0 mm
10:59 AM 32.5°F0.3°C 31.8°F-0.1°C 97% 4.0 mph NW6.4 kmh NW 6.3 mph10.1 kmh 24.51 in830.0 mb 0.00 in0.0 mm 0.00 in0.0 mm 0.00 in0.0 mm
11:04 AM 32.5°F0.3°C 31.8°F-0.1°C 97% 4.0 mph NW6.4 kmh NW 6.9 mph11.1 kmh 24.51 in830.0 mb 0.00 in0.0 mm 0.00 in0.0 mm 0.00 in0.0 mm
11:09 AM 32.7°F0.4°C 32.0°F0.0°C 97% 3.0 mph NW4.8 kmh NW 4.5 mph7.2 kmh 24.51 in830.0 mb 0.00 in0.0 mm 0.00 in0.0 mm 0.00 in0.0 mm
11:14 AM 32.7°F0.4°C 32.0°F0.0°C 97% 3.0 mph NW4.8 kmh NW 6.3 mph10.1 kmh 24.51 in830.0 mb 0.00 in0.0 mm 0.00 in0.0 mm 0.00 in0.0 mm
11:19 AM 33.1°F0.6°C 32.4°F0.2°C 97% 4.0 mph NW6.4 kmh NW 5.4 mph8.7 kmh 24.51 in830.0 mb 0.00 in0.0 mm 0.00 in0.0 mm 0.00 in0.0 mm
11:24 AM 33.1°F0.6°C 32.4°F0.2°C 97% 4.0 mph NW6.4 kmh NW 6.3 mph10.1 kmh 24.51 in830.0 mb 0.00 in0.0 mm 0.00 in0.0 mm 0.00 in0.0 mm
11:29 AM 33.1°F0.6°C 32.4°F0.2°C 97% 4.0 mph NW6.4 kmh NW 5.8 mph9.3 kmh 24.51 in830.0 mb 0.00 in0.0 mm 0.00 in0.0 mm 0.00 in0.0 mm
11:34 AM 33.3°F0.7°C 32.5°F0.3°C 97% 3.0 mph NW4.8 kmh NW 6.3 mph10.1 kmh 24.51 in830.0 mb 0.00 in0.0 mm 0.00 in0.0 mm 0.00 in0.0 mm
11:39 AM 33.8°F1.0°C 33.1°F0.6°C 97% 3.0 mph NW4.8 kmh NW 4.5 mph7.2 kmh 24.51 in830.0 mb 0.00 in0.0 mm 0.00 in0.0 mm 0.00 in0.0 mm
11:44 AM 33.8°F1.0°C 33.1°F0.6°C 97% 3.0 mph NW4.8 kmh NW 4.9 mph7.9 kmh 24.51 in830.0 mb 0.00 in0.0 mm 0.00 in0.0 mm 0.00 in0.0 mm
11:49 AM 34.0°F1.1°C 33.3°F0.7°C 97% 3.0 mph NW4.8 kmh NW 4.9 mph7.9 kmh 24.51 in830.0 mb 0.00 in0.0 mm 0.00 in0.0 mm 0.00 in0.0 mm
11:54 AM 34.0°F1.1°C 33.3°F0.7°C 97% 2.0 mph NNW3.2 kmh NNW 4.0 mph6.4 kmh 24.51 in830.0 mb 0.00 in0.0 mm 0.00 in0.0 mm 0.00 in0.0 mm
11:59 AM 34.0°F1.1°C 33.3°F0.7°C 97% 2.0 mph NW3.2 kmh NW 4.5 mph7.2 kmh 24.51 in830.0 mb 0.00 in0.0 mm 0.00 in0.0 mm 0.00 in0.0 mm
12:04 PM 34.3°F1.3°C 33.6°F0.9°C 97% 3.0 mph NW4.8 kmh NW 4.5 mph7.2 kmh 24.51 in830.0 mb 0.00 in0.0 mm 0.00 in0.0 mm 0.00 in0.0 mm
12:09 PM 34.3°F1.3°C 33.6°F0.9°C 97% 3.0 mph NW4.8 kmh NW 4.5 mph7.2 kmh 24.51 in830.0 mb 0.00 in0.0 mm 0.00 in0.0 mm 0.00 in0.0 mm
12:14 PM 34.5°F1.4°C 33.8°F1.0°C 97% 3.0 mph NW4.8 kmh NW 4.5 mph7.2 kmh 24.51 in830.0 mb 0.00 in0.0 mm 0.00 in0.0 mm 0.00 in0.0 mm
12:19 PM 34.3°F1.3°C 33.6°F0.9°C 97% 3.0 mph NW4.8 kmh NW 5.8 mph9.3 kmh 24.51 in830.0 mb 0.00 in0.0 mm 0.00 in0.0 mm 0.00 in0.0 mm
12:24 PM 34.3°F1.3°C 33.6°F0.9°C 97% 3.0 mph NW4.8 kmh NW 5.8 mph9.3 kmh 24.51 in830.0 mb 0.00 in0.0 mm 0.00 in0.0 mm 0.00 in0.0 mm
12:29 PM 34.7°F1.5°C 34.0°F1.1°C 97% 2.0 mph NNW3.2 kmh NNW 4.5 mph7.2 kmh 24.51 in830.0 mb 0.00 in0.0 mm 0.00 in0.0 mm 0.00 in0.0 mm
12:35 PM 35.1°F1.7°C 34.3°F1.3°C 97% 1.0 mph NW1.6 kmh NW 4.5 mph7.2 kmh 24.51 in830.0 mb 0.00 in0.0 mm 0.00 in0.0 mm 0.00 in0.0 mm
12:40 PM 34.9°F1.6°C 34.2°F1.2°C 97% 1.0 mph NW1.6 kmh NW 4.5 mph7.2 kmh 24.51 in830.0 mb 0.00 in0.0 mm 0.00 in0.0 mm 0.00 in0.0 mm
12:45 PM 34.9°F1.6°C 34.2°F1.2°C 97% 1.0 mph NW1.6 kmh NW 4.5 mph7.2 kmh 24.51 in830.0 mb 0.00 in0.0 mm 0.00 in0.0 mm 0.00 in0.0 mm
12:50 PM 34.7°F1.5°C 33.6°F0.9°C 96% 1.0 mph W1.6 kmh W 5.4 mph8.7 kmh 24.51 in830.0 mb 0.00 in0.0 mm 0.00 in0.0 mm 0.00 in0.0 mm
12:55 PM 35.1°F1.7°C 33.8°F1.0°C 95% 2.0 mph WSW3.2 kmh WSW 4.5 mph7.2 kmh 24.51 in830.0 mb 0.00 in0.0 mm 0.00 in0.0 mm 0.00 in0.0 mm
01:00 PM 35.2°F1.8°C 34.0°F1.1°C 95% 2.0 mph WSW3.2 kmh WSW 4.5 mph7.2 kmh 24.54 in831.0 mb 0.00 in0.0 mm 0.00 in0.0 mm 0.00 in0.0 mm
01:05 PM 35.2°F1.8°C 34.0°F1.1°C 95% 3.0 mph W4.8 kmh W 4.5 mph7.2 kmh 24.54 in831.0 mb 0.00 in0.0 mm 0.00 in0.0 mm 0.00 in0.0 mm
01:10 PM 35.2°F1.8°C 34.0°F1.1°C 95% 1.0 mph NW1.6 kmh NW 3.1 mph5.0 kmh 24.54 in831.0 mb 0.00 in0.0 mm 0.00 in0.0 mm 0.00 in0.0 mm
01:15 PM 35.4°F1.9°C 34.2°F1.2°C 95% Calm Calm 4.9 mph7.9 kmh 24.54 in831.0 mb 0.00 in0.0 mm 0.00 in0.0 mm 0.00 in0.0 mm
01:20 PM 35.1°F1.7°C 33.4°F0.8°C 94% 1.0 mph WSW1.6 kmh WSW 4.9 mph7.9 kmh 24.54 in831.0 mb 0.00 in0.0 mm 0.00 in0.0 mm 0.00 in0.0 mm
01:25 PM 35.4°F1.9°C 33.8°F1.0°C 94% 2.0 mph SW3.2 kmh SW 5.4 mph8.7 kmh 24.54 in831.0 mb 0.00 in0.0 mm 0.00 in0.0 mm 0.00 in0.0 mm
01:30 PM 35.2°F1.8°C 33.4°F0.8°C 93% 3.0 mph SW4.8 kmh SW 5.8 mph9.3 kmh 24.54 in831.0 mb 0.00 in0.0 mm 0.00 in0.0 mm 0.00 in0.0 mm
01:35 PM 35.2°F1.8°C 33.1°F0.6°C 92% 4.0 mph SW6.4 kmh SW 5.4 mph8.7 kmh 24.54 in831.0 mb 0.00 in0.0 mm 0.00 in0.0 mm 0.00 in0.0 mm
01:40 PM 35.4°F1.9°C 33.3°F0.7°C 92% 4.0 mph SW6.4 kmh SW 5.4 mph8.7 kmh 24.54 in831.0 mb 0.00 in0.0 mm 0.00 in0.0 mm 0.00 in0.0 mm
01:45 PM 35.2°F1.8°C 33.1°F0.6°C 92% 4.0 mph SSW6.4 kmh SSW 6.9 mph11.1 kmh 24.54 in831.0 mb 0.00 in0.0 mm 0.00 in0.0 mm 0.00 in0.0 mm
01:50 PM 35.6°F2.0°C 33.8°F1.0°C 93% 4.0 mph S6.4 kmh S 6.7 mph10.8 kmh 24.54 in831.0 mb 0.00 in0.0 mm 0.00 in0.0 mm 0.00 in0.0 mm
01:55 PM 35.6°F2.0°C 33.8°F1.0°C 93% 4.0 mph S6.4 kmh S 6.7 mph10.8 kmh 24.54 in831.0 mb 0.00 in0.0 mm 0.00 in0.0 mm 0.00 in0.0 mm
02:00 PM 35.8°F2.1°C 34.2°F1.2°C 94% 4.0 mph S6.4 kmh S 6.9 mph11.1 kmh 24.54 in831.0 mb 0.00 in0.0 mm 0.00 in0.0 mm 0.00 in0.0 mm
02:05 PM 35.4°F1.9°C 33.8°F1.0°C 94% 5.0 mph S8.0 kmh S 7.8 mph12.6 kmh 24.54 in831.0 mb 0.00 in0.0 mm 0.00 in0.0 mm 0.00 in0.0 mm
02:10 PM 35.1°F1.7°C 33.4°F0.8°C 94% 6.0 mph S9.7 kmh S 7.8 mph12.6 kmh 24.54 in831.0 mb 0.00 in0.0 mm 0.00 in0.0 mm 0.00 in0.0 mm
02:15 PM 35.1°F1.7°C 33.4°F0.8°C 94% 6.0 mph S9.7 kmh S 6.9 mph11.1 kmh 24.57 in832.0 mb 0.00 in0.0 mm 0.00 in0.0 mm 0.00 in0.0 mm
02:20 PM 35.1°F1.7°C 33.4°F0.8°C 94% 5.0 mph S8.0 kmh S 7.4 mph11.9 kmh 24.57 in832.0 mb 0.00 in0.0 mm 0.00 in0.0 mm 0.00 in0.0 mm
02:25 PM 35.4°F1.9°C 33.8°F1.0°C 94% 6.0 mph S9.7 kmh S 7.8 mph12.6 kmh 24.57 in832.0 mb 0.00 in0.0 mm 0.00 in0.0 mm 0.00 in0.0 mm
02:30 PM 35.4°F1.9°C 34.2°F1.2°C 95% 6.0 mph S9.7 kmh S 8.3 mph13.4 kmh 24.57 in832.0 mb 0.00 in0.0 mm 0.00 in0.0 mm 0.00 in0.0 mm
02:35 PM 35.8°F2.1°C 34.5°F1.4°C 95% 7.0 mph S11.3 kmh S 10.1 mph16.3 kmh 24.57 in832.0 mb 0.00 in0.0 mm 0.00 in0.0 mm 0.00 in0.0 mm
02:40 PM 35.4°F1.9°C 34.2°F1.2°C 95% 8.0 mph S12.9 kmh S 10.1 mph16.3 kmh 24.57 in832.0 mb 0.00 in0.0 mm 0.00 in0.0 mm 0.00 in0.0 mm
02:45 PM 35.4°F1.9°C 34.2°F1.2°C 95% 7.0 mph SSW11.3 kmh SSW 8.7 mph14.0 kmh 24.57 in832.0 mb 0.00 in0.0 mm 0.00 in0.0 mm 0.00 in0.0 mm
02:50 PM 35.1°F1.7°C 34.0°F1.1°C 96% 6.0 mph SW9.7 kmh SW 8.3 mph13.4 kmh 24.57 in832.0 mb 0.00 in0.0 mm 0.00 in0.0 mm 0.00 in0.0 mm
02:55 PM 35.1°F1.7°C 34.0°F1.1°C 96% 6.0 mph SW9.7 kmh SW 9.2 mph14.8 kmh 24.57 in832.0 mb 0.00 in0.0 mm 0.00 in0.0 mm 0.00 in0.0 mm
03:00 PM 35.2°F1.8°C 34.2°F1.2°C 96% 6.0 mph SW9.7 kmh SW 7.8 mph12.6 kmh 24.60 in833.1 mb 0.00 in0.0 mm 0.00 in0.0 mm 0.00 in0.0 mm
03:05 PM 35.2°F1.8°C 34.2°F1.2°C 96% 6.0 mph SW9.7 kmh SW 10.5 mph16.9 kmh 24.60 in833.1 mb 0.00 in0.0 mm 0.00 in0.0 mm 0.00 in0.0 mm
03:10 PM 35.4°F1.9°C 34.3°F1.3°C 96% 5.0 mph SW8.0 kmh SW 6.7 mph10.8 kmh 24.60 in833.1 mb 0.00 in0.0 mm 0.00 in0.0 mm 0.00 in0.0 mm
03:15 PM 35.4°F1.9°C 34.3°F1.3°C 96% 5.0 mph SW8.0 kmh SW 8.3 mph13.4 kmh 24.60 in833.1 mb 0.00 in0.0 mm 0.00 in0.0 mm 0.00 in0.0 mm
03:20 PM 35.6°F2.0°C 34.5°F1.4°C 96% 5.0 mph SSW8.0 kmh SSW 7.8 mph12.6 kmh 24.60 in833.1 mb 0.00 in0.0 mm 0.00 in0.0 mm 0.00 in0.0 mm
03:25 PM 35.6°F2.0°C 34.9°F1.6°C 97% 5.0 mph S8.0 kmh S 7.8 mph12.6 kmh 24.60 in833.1 mb 0.00 in0.0 mm 0.00 in0.0 mm 0.00 in0.0 mm
03:30 PM 35.4°F1.9°C 34.3°F1.3°C 96% 6.0 mph S9.7 kmh S 9.2 mph14.8 kmh 24.60 in833.1 mb 0.00 in0.0 mm 0.00 in0.0 mm 0.00 in0.0 mm
03:35 PM 35.4°F1.9°C 34.3°F1.3°C 96% 7.0 mph S11.3 kmh S 11.2 mph18.0 kmh 24.60 in833.1 mb 0.00 in0.0 mm 0.00 in0.0 mm 0.00 in0.0 mm
03:40 PM 35.4°F1.9°C 34.3°F1.3°C 96% 7.0 mph SSW11.3 kmh SSW 9.6 mph15.4 kmh 24.60 in833.1 mb 0.00 in0.0 mm 0.00 in0.0 mm 0.00 in0.0 mm
03:45 PM 35.4°F1.9°C 34.3°F1.3°C 96% 7.0 mph SSW11.3 kmh SSW 11.0 mph17.7 kmh 24.63 in834.1 mb 0.00 in0.0 mm 0.00 in0.0 mm 0.00 in0.0 mm
03:50 PM 35.1°F1.7°C 34.0°F1.1°C 96% 7.0 mph SSW11.3 kmh SSW 11.2 mph18.0 kmh 24.63 in834.1 mb 0.00 in0.0 mm 0.00 in0.0 mm 0.00 in0.0 mm
03:55 PM 35.1°F1.7°C 34.0°F1.1°C 96% 8.0 mph S12.9 kmh S 12.1 mph19.5 kmh 24.63 in834.1 mb 0.00 in0.0 mm 0.00 in0.0 mm 0.00 in0.0 mm
04:00 PM 35.1°F1.7°C 34.0°F1.1°C 96% 8.0 mph S12.9 kmh S 10.1 mph16.3 kmh 24.63 in834.1 mb 0.00 in0.0 mm 0.00 in0.0 mm 0.00 in0.0 mm
04:05 PM 35.1°F1.7°C 34.0°F1.1°C 96% 7.0 mph S11.3 kmh S 8.7 mph14.0 kmh 24.63 in834.1 mb 0.00 in0.0 mm 0.00 in0.0 mm 0.00 in0.0 mm
04:10 PM 35.1°F1.7°C 34.0°F1.1°C 96% 6.0 mph S9.7 kmh S 10.5 mph16.9 kmh 24.63 in834.1 mb 0.00 in0.0 mm 0.00 in0.0 mm 0.00 in0.0 mm
04:15 PM 34.9°F1.6°C 33.8°F1.0°C 96% 6.0 mph S9.7 kmh S 8.3 mph13.4 kmh 24.66 in835.1 mb 0.00 in0.0 mm 0.00 in0.0 mm 0.00 in0.0 mm
04:20 PM 34.9°F1.6°C 33.8°F1.0°C 96% 5.0 mph S8.0 kmh S 6.7 mph10.8 kmh 24.66 in835.1 mb 0.00 in0.0 mm 0.00 in0.0 mm 0.00 in0.0 mm
04:25 PM 35.1°F1.7°C 34.0°F1.1°C 96% 5.0 mph S8.0 kmh S 8.3 mph13.4 kmh 24.66 in835.1 mb 0.00 in0.0 mm 0.00 in0.0 mm 0.00 in0.0 mm
04:30 PM 35.1°F1.7°C 34.0°F1.1°C 96% 5.0 mph S8.0 kmh S 8.3 mph13.4 kmh 24.66 in835.1 mb 0.00 in0.0 mm 0.00 in0.0 mm 0.00 in0.0 mm
04:35 PM 35.2°F1.8°C 34.2°F1.2°C 96% 5.0 mph S8.0 kmh S 7.8 mph12.6 kmh 24.66 in835.1 mb 0.00 in0.0 mm 0.00 in0.0 mm 0.00 in0.0 mm
04:40 PM 35.2°F1.8°C 34.2°F1.2°C 96% 5.0 mph S8.0 kmh S 7.8 mph12.6 kmh 24.66 in835.1 mb 0.00 in0.0 mm 0.00 in0.0 mm 0.00 in0.0 mm
04:45 PM 34.9°F1.6°C 33.8°F1.0°C 96% 5.0 mph SSE8.0 kmh SSE 7.4 mph11.9 kmh 24.66 in835.1 mb 0.00 in0.0 mm 0.00 in0.0 mm 0.00 in0.0 mm
04:50 PM 34.5°F1.4°C 33.4°F0.8°C 96% 4.0 mph ESE6.4 kmh ESE 6.7 mph10.8 kmh 24.66 in835.1 mb 0.00 in0.0 mm 0.00 in0.0 mm 0.00 in0.0 mm
04:55 PM 34.7°F1.5°C 33.6°F0.9°C 96% 3.0 mph E4.8 kmh E 7.4 mph11.9 kmh 24.66 in835.1 mb 0.00 in0.0 mm 0.00 in0.0 mm 0.00 in0.0 mm
05:00 PM 34.3°F1.3°C 33.3°F0.7°C 96% 5.0 mph SSW8.0 kmh SSW 11.0 mph17.7 kmh 24.69 in836.1 mb 0.00 in0.0 mm 0.00 in0.0 mm 0.00 in0.0 mm
05:05 PM 34.3°F1.3°C 33.3°F0.7°C 96% 7.0 mph WSW11.3 kmh WSW 9.6 mph15.4 kmh 24.69 in836.1 mb 0.00 in0.0 mm 0.00 in0.0 mm 0.00 in0.0 mm
05:10 PM 34.3°F1.3°C 33.3°F0.7°C 96% 7.0 mph WSW11.3 kmh WSW 9.6 mph15.4 kmh 24.69 in836.1 mb 0.00 in0.0 mm 0.00 in0.0 mm 0.00 in0.0 mm
05:15 PM 34.3°F1.3°C 33.6°F0.9°C 97% 7.0 mph WSW11.3 kmh WSW 8.7 mph14.0 kmh 24.69 in836.1 mb 0.00 in0.0 mm 0.00 in0.0 mm 0.00 in0.0 mm
05:20 PM 34.5°F1.4°C 33.8°F1.0°C 97% 6.0 mph SW9.7 kmh SW 8.3 mph13.4 kmh 24.69 in836.1 mb 0.00 in0.0 mm 0.00 in0.0 mm 0.00 in0.0 mm
05:25 PM 34.3°F1.3°C 33.6°F0.9°C 97% 6.0 mph SW9.7 kmh SW 7.8 mph12.6 kmh 24.69 in836.1 mb 0.00 in0.0 mm 0.00 in0.0 mm 0.00 in0.0 mm
05:30 PM 34.3°F1.3°C 33.6°F0.9°C 97% 6.0 mph SW9.7 kmh SW 7.4 mph11.9 kmh 24.72 in837.1 mb 0.00 in0.0 mm 0.00 in0.0 mm 0.00 in0.0 mm
05:35 PM 34.3°F1.3°C 33.6°F0.9°C 97% 5.0 mph SW8.0 kmh SW 6.7 mph10.8 kmh 24.72 in837.1 mb 0.00 in0.0 mm 0.00 in0.0 mm 0.00 in0.0 mm
05:40 PM 34.3°F1.3°C 34.3°F1.3°C 100% 4.0 mph SW6.4 kmh SW 9.6 mph15.4 kmh 24.72 in837.1 mb 0.00 in0.0 mm 0.00 in0.0 mm 0.00 in0.0 mm
05:45 PM 34.3°F1.3°C 34.3°F1.3°C 100% 4.0 mph SW6.4 kmh SW 6.9 mph11.1 kmh 24.72 in837.1 mb 0.00 in0.0 mm 0.00 in0.0 mm 0.00 in0.0 mm
05:50 PM 34.3°F1.3°C 34.3°F1.3°C 100% 4.0 mph SW6.4 kmh SW 5.8 mph9.3 kmh 24.72 in837.1 mb 0.00 in0.0 mm 0.00 in0.0 mm 0.00 in0.0 mm
05:55 PM 34.3°F1.3°C 34.3°F1.3°C 100% 4.0 mph SSW6.4 kmh SSW 6.7 mph10.8 kmh 24.72 in837.1 mb 0.00 in0.0 mm 0.00 in0.0 mm 0.00 in0.0 mm
06:00 PM 34.3°F1.3°C 34.3°F1.3°C 100% 5.0 mph S8.0 kmh S 7.4 mph11.9 kmh 24.72 in837.1 mb 0.00 in0.0 mm 0.00 in0.0 mm 0.00 in0.0 mm
06:05 PM 34.3°F1.3°C 34.3°F1.3°C 100% 5.0 mph S8.0 kmh S 7.4 mph11.9 kmh 24.72 in837.1 mb 0.00 in0.0 mm 0.00 in0.0 mm 0.00 in0.0 mm
06:10 PM 34.3°F1.3°C 34.3°F1.3°C 100% 4.0 mph S6.4 kmh S 5.8 mph9.3 kmh 24.72 in837.1 mb 0.00 in0.0 mm 0.00 in0.0 mm 0.00 in0.0 mm
06:15 PM 34.2°F1.2°C 34.2°F1.2°C 100% 4.0 mph S6.4 kmh S 5.4 mph8.7 kmh 24.75 in838.1 mb 0.00 in0.0 mm 0.00 in0.0 mm 0.00 in0.0 mm
06:20 PM 34.2°F1.2°C 34.2°F1.2°C 100% 4.0 mph S6.4 kmh S 5.4 mph8.7 kmh 24.75 in838.1 mb 0.00 in0.0 mm 0.00 in0.0 mm 0.00 in0.0 mm
06:26 PM 34.2°F1.2°C 34.2°F1.2°C 100% 4.0 mph S6.4 kmh S 6.9 mph11.1 kmh 24.75 in838.1 mb 0.00 in0.0 mm 0.00 in0.0 mm 0.00 in0.0 mm
06:31 PM 34.0°F1.1°C 34.0°F1.1°C 100% 4.0 mph S6.4 kmh S 6.3 mph10.1 kmh 24.75 in838.1 mb 0.00 in0.0 mm 0.00 in0.0 mm 0.00 in0.0 mm
06:36 PM 34.0°F1.1°C 33.3°F0.7°C 97% 4.0 mph S6.4 kmh S 7.4 mph11.9 kmh 24.75 in838.1 mb 0.00 in0.0 mm 0.00 in0.0 mm 0.00 in0.0 mm
06:41 PM 34.0°F1.1°C 34.0°F1.1°C 100% 5.0 mph S8.0 kmh S 6.7 mph10.8 kmh 24.75 in838.1 mb 0.00 in0.0 mm 0.00 in0.0 mm 0.00 in0.0 mm
06:46 PM 34.0°F1.1°C 33.3°F0.7°C 97% 4.0 mph S6.4 kmh S 5.8 mph9.3 kmh 24.75 in838.1 mb 0.00 in0.0 mm 0.00 in0.0 mm 0.00 in0.0 mm
06:51 PM 33.8°F1.0°C 33.1°F0.6°C 97% 4.0 mph S6.4 kmh S 4.5 mph7.2 kmh 24.75 in838.1 mb 0.00 in0.0 mm 0.00 in0.0 mm 0.00 in0.0 mm
06:56 PM 33.8°F1.0°C 33.1°F0.6°C 97% 3.0 mph S4.8 kmh S 4.9 mph7.9 kmh 24.75 in838.1 mb 0.00 in0.0 mm 0.00 in0.0 mm 0.00 in0.0 mm
07:01 PM 33.8°F1.0°C 33.1°F0.6°C 97% 3.0 mph SSE4.8 kmh SSE 6.7 mph10.8 kmh 24.77 in838.8 mb 0.00 in0.0 mm 0.00 in0.0 mm 0.00 in0.0 mm
07:06 PM 33.8°F1.0°C 33.1°F0.6°C 97% 4.0 mph S6.4 kmh S 6.9 mph11.1 kmh 24.77 in838.8 mb 0.00 in0.0 mm 0.00 in0.0 mm 0.00 in0.0 mm
07:11 PM 33.8°F1.0°C 33.8°F1.0°C 100% 5.0 mph S8.0 kmh S 7.8 mph12.6 kmh 24.77 in838.8 mb 0.00 in0.0 mm 0.00 in0.0 mm 0.00 in0.0 mm
07:16 PM 33.8°F1.0°C 33.8°F1.0°C 100% 5.0 mph S8.0 kmh S 8.7 mph14.0 kmh 24.77 in838.8 mb 0.00 in0.0 mm 0.00 in0.0 mm 0.00 in0.0 mm
07:21 PM 34.0°F1.1°C 34.0°F1.1°C 100% 6.0 mph S9.7 kmh S 9.2 mph14.8 kmh 24.77 in838.8 mb 0.00 in0.0 mm 0.00 in0.0 mm 0.00 in0.0 mm
07:26 PM 34.0°F1.1°C 33.3°F0.7°C 97% 7.0 mph SSW11.3 kmh SSW 10.5 mph16.9 kmh 24.77 in838.8 mb 0.00 in0.0 mm 0.00 in0.0 mm 0.00 in0.0 mm
07:31 PM 34.0°F1.1°C 33.3°F0.7°C 97% 7.0 mph SSW11.3 kmh SSW 11.0 mph17.7 kmh 24.80 in839.8 mb 0.00 in0.0 mm 0.00 in0.0 mm 0.00 in0.0 mm
07:36 PM 34.0°F1.1°C 33.3°F0.7°C 97% 7.0 mph SSW11.3 kmh SSW 8.7 mph14.0 kmh 24.80 in839.8 mb 0.00 in0.0 mm 0.00 in0.0 mm 0.00 in0.0 mm
07:41 PM 34.0°F1.1°C 33.3°F0.7°C 97% 6.0 mph S9.7 kmh S 8.7 mph14.0 kmh 24.80 in839.8 mb 0.00 in0.0 mm 0.00 in0.0 mm 0.00 in0.0 mm
07:46 PM 34.0°F1.1°C 33.3°F0.7°C 97% 5.0 mph S8.0 kmh S 6.9 mph11.1 kmh 24.80 in839.8 mb 0.00 in0.0 mm 0.00 in0.0 mm 0.00 in0.0 mm
07:51 PM 34.0°F1.1°C 33.3°F0.7°C 97% 5.0 mph S8.0 kmh S 6.9 mph11.1 kmh 24.80 in839.8 mb 0.00 in0.0 mm 0.00 in0.0 mm 0.00 in0.0 mm
07:56 PM 34.0°F1.1°C 33.3°F0.7°C 97% 5.0 mph S8.0 kmh S 6.7 mph10.8 kmh 24.80 in839.8 mb 0.00 in0.0 mm 0.00 in0.0 mm 0.00 in0.0 mm
08:01 PM 34.0°F1.1°C 33.3°F0.7°C 97% 4.0 mph S6.4 kmh S 5.8 mph9.3 kmh 24.83 in840.8 mb 0.00 in0.0 mm 0.00 in0.0 mm 0.00 in0.0 mm
08:06 PM 34.0°F1.1°C 33.3°F0.7°C 97% 3.0 mph SSE4.8 kmh SSE 4.9 mph7.9 kmh 24.83 in840.8 mb 0.00 in0.0 mm 0.00 in0.0 mm 0.00 in0.0 mm
08:11 PM 34.0°F1.1°C 33.3°F0.7°C 97% 2.0 mph SSE3.2 kmh SSE 4.5 mph7.2 kmh 24.83 in840.8 mb 0.00 in0.0 mm 0.00 in0.0 mm 0.00 in0.0 mm
08:16 PM 34.0°F1.1°C 33.3°F0.7°C 97% 3.0 mph S4.8 kmh S 8.3 mph13.4 kmh 24.83 in840.8 mb 0.00 in0.0 mm 0.00 in0.0 mm 0.00 in0.0 mm
08:21 PM 34.2°F1.2°C 33.1°F0.6°C 96% 6.0 mph S9.7 kmh S 14.3 mph23.0 kmh 24.83 in840.8 mb 0.00 in0.0 mm 0.00 in0.0 mm 0.00 in0.0 mm
08:26 PM 34.5°F1.4°C 32.7°F0.4°C 93% 8.0 mph S12.9 kmh S 11.6 mph18.7 kmh 24.83 in840.8 mb 0.00 in0.0 mm 0.00 in0.0 mm 0.00 in0.0 mm
08:31 PM 34.5°F1.4°C 31.1°F-0.5°C 87% 8.0 mph S12.9 kmh S 11.2 mph18.0 kmh 24.83 in840.8 mb 0.00 in0.0 mm 0.00 in0.0 mm 0.00 in0.0 mm
08:36 PM 34.7°F1.5°C 30.7°F-0.7°C 85% 7.0 mph S11.3 kmh S 7.4 mph11.9 kmh 24.83 in840.8 mb 0.00 in0.0 mm 0.00 in0.0 mm 0.00 in0.0 mm
08:41 PM 34.7°F1.5°C 30.0°F-1.1°C 83% 6.0 mph S9.7 kmh S 10.5 mph16.9 kmh 24.83 in840.8 mb 0.00 in0.0 mm 0.00 in0.0 mm 0.00 in0.0 mm
08:46 PM 34.9°F1.6°C 29.1°F-1.6°C 79% 7.0 mph S11.3 kmh S 12.5 mph20.1 kmh 24.86 in841.9 mb 0.00 in0.0 mm 0.00 in0.0 mm 0.00 in0.0 mm
08:51 PM 34.7°F1.5°C 28.9°F-1.7°C 79% 9.0 mph S14.5 kmh S 14.8 mph23.8 kmh 24.86 in841.9 mb 0.00 in0.0 mm 0.00 in0.0 mm 0.00 in0.0 mm
08:56 PM 34.5°F1.4°C 28.4°F-2.0°C 78% 8.0 mph S12.9 kmh S 12.5 mph20.1 kmh 24.86 in841.9 mb 0.00 in0.0 mm 0.00 in0.0 mm 0.00 in0.0 mm
09:01 PM 34.3°F1.3°C 28.6°F-1.9°C 79% 7.0 mph SSE11.3 kmh SSE 8.7 mph14.0 kmh 24.86 in841.9 mb 0.00 in0.0 mm 0.00 in0.0 mm 0.00 in0.0 mm
09:06 PM 34.2°F1.2°C 28.4°F-2.0°C 79% 5.0 mph SSE8.0 kmh SSE 6.3 mph10.1 kmh 24.86 in841.9 mb 0.00 in0.0 mm 0.00 in0.0 mm 0.00 in0.0 mm
09:11 PM 34.0°F1.1°C 28.4°F-2.0°C 80% 4.0 mph S6.4 kmh S 5.4 mph8.7 kmh 24.86 in841.9 mb 0.00 in0.0 mm 0.00 in0.0 mm 0.00 in0.0 mm
09:16 PM 34.0°F1.1°C 28.8°F-1.8°C 81% 3.0 mph S4.8 kmh S 4.9 mph7.9 kmh 24.86 in841.9 mb 0.00 in0.0 mm 0.00 in0.0 mm 0.00 in0.0 mm
09:21 PM 33.8°F1.0°C 28.6°F-1.9°C 81% 3.0 mph S4.8 kmh S 4.0 mph6.4 kmh 24.86 in841.9 mb 0.00 in0.0 mm 0.00 in0.0 mm 0.00 in0.0 mm
09:26 PM 33.8°F1.0°C 28.9°F-1.7°C 82% 2.0 mph S3.2 kmh S 3.6 mph5.8 kmh 24.86 in841.9 mb 0.00 in0.0 mm 0.00 in0.0 mm 0.00 in0.0 mm
09:31 PM 33.8°F1.0°C 28.9°F-1.7°C 82% 2.0 mph S3.2 kmh S 4.5 mph7.2 kmh 24.89 in842.9 mb 0.00 in0.0 mm 0.00 in0.0 mm 0.00 in0.0 mm
09:36 PM 33.8°F1.0°C 28.9°F-1.7°C 82% 1.0 mph S1.6 kmh S 4.0 mph6.4 kmh 24.89 in842.9 mb 0.00 in0.0 mm 0.00 in0.0 mm 0.00 in0.0 mm
09:41 PM 33.8°F1.0°C 29.1°F-1.6°C 83% Calm Calm -- 24.89 in842.9 mb 0.00 in0.0 mm 0.00 in0.0 mm 0.00 in0.0 mm
09:46 PM 33.8°F1.0°C 29.1°F-1.6°C 83% Calm Calm 2.7 mph4.3 kmh 24.89 in842.9 mb 0.00 in0.0 mm 0.00 in0.0 mm 0.00 in0.0 mm
09:51 PM 34.0°F1.1°C 29.3°F-1.5°C 83% 1.0 mph SSE1.6 kmh SSE 6.7 mph10.8 kmh 24.89 in842.9 mb 0.00 in0.0 mm 0.00 in0.0 mm 0.00 in0.0 mm
09:56 PM 34.2°F1.2°C 29.5°F-1.4°C 83% 4.0 mph SE6.4 kmh SE 6.7 mph10.8 kmh 24.89 in842.9 mb 0.00 in0.0 mm 0.00 in0.0 mm 0.00 in0.0 mm
10:01 PM 34.2°F1.2°C 28.6°F-1.9°C 80% 4.0 mph SE6.4 kmh SE 4.9 mph7.9 kmh 24.89 in842.9 mb 0.00 in0.0 mm 0.00 in0.0 mm 0.00 in0.0 mm
10:06 PM 34.3°F1.3°C 27.3°F-2.6°C 75% 4.0 mph SSE6.4 kmh SSE 6.7 mph10.8 kmh 24.89 in842.9 mb 0.00 in0.0 mm 0.00 in0.0 mm 0.00 in0.0 mm
10:11 PM 34.5°F1.4°C 26.8°F-2.9°C 73% 4.0 mph S6.4 kmh S 5.8 mph9.3 kmh 24.89 in842.9 mb 0.00 in0.0 mm 0.00 in0.0 mm 0.00 in0.0 mm
10:16 PM 34.7°F1.5°C 27.0°F-2.8°C 73% 3.0 mph SE4.8 kmh SE 4.9 mph7.9 kmh 24.92 in843.9 mb 0.00 in0.0 mm 0.00 in0.0 mm 0.00 in0.0 mm
10:21 PM 34.3°F1.3°C 26.6°F-3.0°C 73% 2.0 mph ESE3.2 kmh ESE 4.9 mph7.9 kmh 24.92 in843.9 mb 0.00 in0.0 mm 0.00 in0.0 mm 0.00 in0.0 mm
10:26 PM 34.2°F1.2°C 26.4°F-3.1°C 73% Calm Calm -- 24.92 in843.9 mb 0.00 in0.0 mm 0.00 in0.0 mm 0.00 in0.0 mm
10:31 PM 34.0°F1.1°C 26.6°F-3.0°C 74% Calm Calm -- 24.92 in843.9 mb 0.00 in0.0 mm 0.00 in0.0 mm 0.00 in0.0 mm
10:36 PM 34.0°F1.1°C 26.6°F-3.0°C 74% Calm Calm 2.7 mph4.3 kmh 24.92 in843.9 mb 0.00 in0.0 mm 0.00 in0.0 mm 0.00 in0.0 mm
10:41 PM 33.8°F1.0°C 26.1°F-3.3°C 73% Calm Calm 3.6 mph5.8 kmh 24.92 in843.9 mb 0.00 in0.0 mm 0.00 in0.0 mm 0.00 in0.0 mm
10:46 PM 33.8°F1.0°C 26.1°F-3.3°C 73% Calm Calm -- 24.92 in843.9 mb 0.00 in0.0 mm 0.00 in0.0 mm 0.00 in0.0 mm
10:51 PM 33.8°F1.0°C 25.7°F-3.5°C 72% Calm Calm -- 24.92 in843.9 mb 0.00 in0.0 mm 0.00 in0.0 mm 0.00 in0.0 mm
10:56 PM 34.0°F1.1°C 25.5°F-3.6°C 71% Calm Calm 2.7 mph4.3 kmh 24.92 in843.9 mb 0.00 in0.0 mm 0.00 in0.0 mm 0.00 in0.0 mm
11:01 PM 34.0°F1.1°C 25.5°F-3.6°C 71% Calm Calm 6.3 mph10.1 kmh 24.92 in843.9 mb 0.00 in0.0 mm 0.00 in0.0 mm 0.00 in0.0 mm
11:06 PM 34.5°F1.4°C 22.5°F-5.3°C 61% 3.0 mph SE4.8 kmh SE 9.2 mph14.8 kmh 24.92 in843.9 mb 0.00 in0.0 mm 0.00 in0.0 mm 0.00 in0.0 mm
11:11 PM 35.4°F1.9°C 19.9°F-6.7°C 53% 6.0 mph SE9.7 kmh SE 10.5 mph16.9 kmh 24.92 in843.9 mb 0.00 in0.0 mm 0.00 in0.0 mm 0.00 in0.0 mm
11:16 PM 35.2°F1.8°C 18.5°F-7.5°C 50% 6.0 mph SE9.7 kmh SE 10.1 mph16.3 kmh 24.92 in843.9 mb 0.00 in0.0 mm 0.00 in0.0 mm 0.00 in0.0 mm
11:21 PM 35.1°F1.7°C 16.9°F-8.4°C 47% 6.0 mph SE9.7 kmh SE 10.5 mph16.9 kmh 24.92 in843.9 mb 0.00 in0.0 mm 0.00 in0.0 mm 0.00 in0.0 mm
11:26 PM 34.9°F1.6°C 16.7°F-8.5°C 47% 6.0 mph SE9.7 kmh SE 9.2 mph14.8 kmh 24.92 in843.9 mb 0.00 in0.0 mm 0.00 in0.0 mm 0.00 in0.0 mm
11:31 PM 35.1°F1.7°C 14.9°F-9.5°C 43% 6.0 mph SE9.7 kmh SE 11.2 mph18.0 kmh 24.95 in844.9 mb 0.00 in0.0 mm 0.00 in0.0 mm 0.00 in0.0 mm
11:36 PM 34.7°F1.5°C 14.5°F-9.7°C 43% 6.0 mph SE9.7 kmh SE 9.6 mph15.4 kmh 24.95 in844.9 mb 0.00 in0.0 mm 0.00 in0.0 mm 0.00 in0.0 mm
11:41 PM 34.3°F1.3°C 14.2°F-9.9°C 43% 6.0 mph SE9.7 kmh SE 11.0 mph17.7 kmh 24.95 in844.9 mb 0.00 in0.0 mm 0.00 in0.0 mm 0.00 in0.0 mm
11:46 PM 34.2°F1.2°C 14.0°F-10.0°C 43% 6.0 mph SE9.7 kmh SE 13.0 mph20.9 kmh 24.95 in844.9 mb 0.00 in0.0 mm 0.00 in0.0 mm 0.00 in0.0 mm
11:51 PM 33.8°F1.0°C 14.2°F-9.9°C 44% 6.0 mph SE9.7 kmh SE 11.2 mph18.0 kmh 24.95 in844.9 mb 0.00 in0.0 mm 0.00 in0.0 mm 0.00 in0.0 mm
11:56 PM 33.6°F0.9°C 14.0°F-10.0°C 44% 6.0 mph SE9.7 kmh SE 10.5 mph16.9 kmh 24.95 in844.9 mb 0.00 in0.0 mm 0.00 in0.0 mm 0.00 in0.0 mm